Time;durP1;ratioP1;P1;durP2;ratioP2;P2;SDS_P1;SDS_P2;PMS_P1;PMS_P2;Temp;Humidity;BMP_temperature;BMP_pressure;BME280_temperature;BME280_humidity;BME280_pressure;Samples;Min_cycle;Max_cycle;Signal;HPM_P1;HPM_P2
2022/01/07 00:00:20;;;;;;;11.03;4.87;;;4.40;99.90;;;;;;5030778;28;20194;-76
2022/01/07 00:02:50;;;;;;;17.70;5.57;;;4.30;99.90;;;;;;5032899;28;20293;-76
2022/01/07 00:05:17;;;;;;;10.87;4.50;;;4.40;99.90;;;;;;5035789;28;20222;-75
2022/01/07 00:07:44;;;;;;;16.40;5.97;;;4.30;99.90;;;;;;5026883;28;20619;-76
2022/01/07 00:10:15;;;;;;;14.00;5.20;;;4.30;99.90;;;;;;5030254;28;20669;-76
2022/01/07 00:12:42;;;;;;;13.37;5.47;;;4.30;99.90;;;;;;5031331;28;20343;-75
2022/01/07 00:15:09;;;;;;;15.13;5.50;;;4.20;99.90;;;;;;5022508;28;20606;-76
2022/01/07 00:17:36;;;;;;;14.80;4.83;;;4.20;99.90;;;;;;5030953;28;20656;-75
2022/01/07 00:20:06;;;;;;;9.13;4.30;;;4.20;99.90;;;;;;5037694;28;20592;-75
2022/01/07 00:22:32;;;;;;;10.47;5.23;;;4.30;99.90;;;;;;5027552;28;20216;-76
2022/01/07 00:24:59;;;;;;;13.17;5.57;;;4.30;99.90;;;;;;5027950;28;20220;-76
2022/01/07 00:27:28;;;;;;;14.80;5.17;;;4.30;99.90;;;;;;5031586;28;20548;-75
2022/01/07 00:29:55;;;;;;;11.83;5.17;;;4.30;99.90;;;;;;5033348;28;20210;-76
2022/01/07 00:32:22;;;;;;;13.00;5.00;;;4.20;99.90;;;;;;5029588;28;20566;-75
2022/01/07 00:34:49;;;;;;;13.37;5.50;;;4.20;99.90;;;;;;5019199;28;20221;-76
2022/01/07 00:37:17;;;;;;;11.10;5.80;;;4.20;99.90;;;;;;5032388;28;20206;-76
2022/01/07 00:39:45;;;;;;;19.83;6.23;;;4.20;99.90;;;;;;5028881;28;20201;-76
2022/01/07 00:42:12;;;;;;;15.20;5.70;;;4.20;99.90;;;;;;5028450;28;20454;-75
2022/01/07 00:44:39;;;;;;;14.67;5.77;;;4.10;99.90;;;;;;5023387;28;20233;-76
2022/01/07 00:47:06;;;;;;;12.03;5.80;;;4.00;99.90;;;;;;5034124;28;20575;-75
2022/01/07 00:49:33;;;;;;;13.73;5.53;;;4.00;99.90;;;;;;5022676;28;20223;-76
2022/01/07 00:52:01;;;;;;;10.00;6.00;;;3.90;99.90;;;;;;5034579;28;20228;-76
2022/01/07 00:54:28;;;;;;;10.17;6.03;;;3.80;99.90;;;;;;5034342;28;20210;-76
2022/01/07 00:56:56;;;;;;;15.77;6.30;;;3.90;99.90;;;;;;5029351;28;20761;-77
2022/01/07 00:59:26;;;;;;;10.70;5.67;;;3.80;99.90;;;;;;5025587;28;20212;-78
2022/01/07 01:01:53;;;;;;;12.13;5.80;;;3.80;99.90;;;;;;5032835;28;20252;-77
2022/01/07 01:04:39;;;;;;;18.27;7.53;;;3.70;99.90;;;;;;5027860;28;20217;-77
2022/01/07 01:07:05;;;;;;;15.40;5.60;;;3.70;99.90;;;;;;5028556;28;20210;-78
2022/01/07 01:09:32;;;;;;;15.50;5.87;;;3.70;99.90;;;;;;5020053;28;20823;-77
2022/01/07 01:12:00;;;;;;;18.03;7.20;;;3.60;99.90;;;;;;5035836;28;20209;-77
2022/01/07 01:14:28;;;;;;;13.63;5.77;;;3.60;99.90;;;;;;5027653;28;20229;-77
2022/01/07 01:16:56;;;;;;;10.73;6.33;;;3.60;99.90;;;;;;5031495;28;20215;-76
2022/01/07 01:19:23;;;;;;;16.63;6.83;;;3.60;99.90;;;;;;5026536;28;20611;-76
2022/01/07 01:21:50;;;;;;;17.83;6.47;;;3.60;99.90;;;;;;5041796;28;20273;-78
2022/01/07 01:24:17;;;;;;;17.00;6.80;;;3.60;99.90;;;;;;5026073;28;20568;-76
2022/01/07 01:26:44;;;;;;;15.60;7.67;;;3.60;99.90;;;;;;5020679;28;20255;-77
2022/01/07 01:29:11;;;;;;;15.30;7.83;;;3.50;99.90;;;;;;5035540;28;20300;-78
2022/01/07 01:31:38;;;;;;;16.50;7.50;;;3.50;99.90;;;;;;5031977;28;20205;-76
2022/01/07 01:34:05;;;;;;;15.73;7.40;;;3.50;99.90;;;;;;5030076;28;20338;-78
2022/01/07 01:36:32;;;;;;;15.70;6.80;;;3.40;99.90;;;;;;5025785;28;20214;-77
2022/01/07 01:38:59;;;;;;;15.37;7.43;;;3.40;99.90;;;;;;5031955;28;20234;-78
2022/01/07 01:41:26;;;;;;;15.17;7.60;;;3.40;99.90;;;;;;5019183;28;20685;-78
2022/01/07 01:43:54;;;;;;;17.73;8.03;;;3.40;99.90;;;;;;5031516;28;20295;-77
2022/01/07 01:46:21;;;;;;;17.13;8.83;;;3.40;99.90;;;;;;5034357;28;20705;-78
2022/01/07 01:48:48;;;;;;;18.70;8.37;;;3.40;99.90;;;;;;5027286;28;20266;-78
2022/01/07 01:51:14;;;;;;;15.40;8.07;;;3.40;99.90;;;;;;5013171;28;20628;-77
2022/01/07 01:53:42;;;;;;;15.80;9.37;;;3.30;99.90;;;;;;5027088;28;20966;-78
2022/01/07 01:56:09;;;;;;;20.73;8.60;;;3.30;99.90;;;;;;4998014;28;20252;-78
2022/01/07 01:58:36;;;;;;;23.90;9.20;;;3.40;99.90;;;;;;5026274;28;20223;-76
2022/01/07 02:01:06;;;;;;;21.27;8.67;;;3.30;99.90;;;;;;5026753;28;20628;-78
2022/01/07 02:03:33;;;;;;;15.83;9.00;;;3.30;99.90;;;;;;5030760;28;20201;-77
2022/01/07 02:06:00;;;;;;;23.23;8.97;;;3.30;99.90;;;;;;5037351;28;20267;-78
2022/01/07 02:08:29;;;;;;;21.73;8.47;;;3.30;99.90;;;;;;5025781;28;20596;-77
2022/01/07 02:10:59;;;;;;;12.23;7.70;;;3.40;99.90;;;;;;5012956;28;20218;-78
2022/01/07 02:13:25;;;;;;;21.03;8.37;;;3.40;99.90;;;;;;5033483;28;20704;-77
2022/01/07 02:15:52;;;;;;;19.57;8.57;;;3.40;99.90;;;;;;5033197;28;20219;-78
2022/01/07 02:18:19;;;;;;;16.17;8.60;;;3.40;99.90;;;;;;5003717;28;20211;-78
2022/01/07 02:20:47;;;;;;;17.40;8.53;;;3.30;99.90;;;;;;5036119;28;20216;-79
2022/01/07 02:23:15;;;;;;;15.93;7.87;;;3.30;99.90;;;;;;5031593;28;20679;-77
2022/01/07 02:25:43;;;;;;;18.70;8.37;;;3.30;99.90;;;;;;5023606;28;20301;-77
2022/01/07 02:28:11;;;;;;;18.53;8.57;;;3.30;99.90;;;;;;5028214;28;20214;-77
2022/01/07 02:30:38;;;;;;;19.17;8.93;;;3.30;99.90;;;;;;5032816;28;20289;-76
2022/01/07 02:33:05;;;;;;;18.57;7.93;;;3.30;99.90;;;;;;5032282;28;20700;-78
2022/01/07 02:35:34;;;;;;;18.50;8.67;;;3.30;99.90;;;;;;5026289;28;20225;-78
2022/01/07 02:38:01;;;;;;;15.73;8.50;;;3.30;99.90;;;;;;5027214;28;20245;-77
2022/01/07 02:40:28;;;;;;;24.10;9.20;;;3.30;99.90;;;;;;5012375;28;20215;-78
2022/01/07 02:42:55;;;;;;;15.90;8.03;;;3.30;99.90;;;;;;5024337;28;20300;-78
2022/01/07 02:45:22;;;;;;;21.17;8.43;;;3.30;99.90;;;;;;5027312;28;20277;-78
2022/01/07 02:47:59;;;;;;;19.07;8.03;;;3.30;99.90;;;;;;5028623;28;20203;-78
2022/01/07 02:50:29;;;;;;;17.80;9.43;;;3.40;99.90;;;;;;5028932;28;20715;-78
2022/01/07 02:52:57;;;;;;;16.23;8.77;;;3.40;99.90;;;;;;5022026;28;20631;-78
2022/01/07 02:55:25;;;;;;;18.53;8.20;;;3.40;99.90;;;;;;5039038;28;20296;-78
2022/01/07 02:57:54;;;;;;;20.37;9.17;;;3.40;99.90;;;;;;5012425;28;20222;-78
2022/01/07 03:00:22;;;;;;;15.50;9.27;;;3.40;99.90;;;;;;5025514;28;20209;-78
2022/01/07 03:02:50;;;;;;;19.53;9.10;;;3.40;99.90;;;;;;5031102;28;20236;-77
2022/01/07 03:05:18;;;;;;;16.23;8.67;;;3.30;99.90;;;;;;5030914;28;20260;-78
2022/01/07 03:07:48;;;;;;;15.30;8.43;;;3.30;99.90;;;;;;5029723;28;20309;-79
2022/01/07 03:10:19;;;;;;;13.00;8.00;;;3.40;99.90;;;;;;5003974;28;20604;-77
2022/01/07 03:12:45;;;;;;;18.87;8.13;;;3.40;99.90;;;;;;5051933;28;20616;-78
2022/01/07 03:15:13;;;;;;;13.97;8.73;;;3.40;99.90;;;;;;5036551;28;20220;-78
2022/01/07 03:17:40;;;;;;;14.80;8.17;;;3.60;99.90;;;;;;5039101;28;20292;-76
2022/01/07 03:20:09;;;;;;;16.60;8.43;;;3.40;99.90;;;;;;5030128;28;20237;-78
2022/01/07 03:22:36;;;;;;;21.30;9.10;;;3.40;99.90;;;;;;5038628;28;20614;-78
2022/01/07 03:25:04;;;;;;;20.23;8.47;;;3.40;99.90;;;;;;5053504;28;20253;-77
2022/01/07 03:27:31;;;;;;;13.73;7.77;;;3.40;99.90;;;;;;5014556;28;20382;-79
2022/01/07 03:29:58;;;;;;;20.80;8.07;;;3.40;99.90;;;;;;5036678;28;20209;-78
2022/01/07 03:32:25;;;;;;;19.23;8.67;;;3.30;99.90;;;;;;5033442;28;20294;-78
2022/01/07 03:34:52;;;;;;;15.03;8.10;;;3.40;99.90;;;;;;5030024;28;20240;-78
2022/01/07 03:37:19;;;;;;;15.47;7.80;;;3.40;99.90;;;;;;5029891;28;20205;-79
2022/01/07 03:39:46;;;;;;;14.53;8.00;;;3.40;99.90;;;;;;5036317;28;20316;-79
2022/01/07 03:42:14;;;;;;;19.00;8.30;;;3.40;99.90;;;;;;5037069;28;20227;-79
2022/01/07 03:44:41;;;;;;;13.63;8.00;;;3.40;99.90;;;;;;5031493;28;20273;-79
2022/01/07 03:47:07;;;;;;;19.33;8.13;;;3.40;99.90;;;;;;5043769;28;20203;-78
2022/01/07 03:49:34;;;;;;;17.10;8.27;;;3.40;99.90;;;;;;5034519;28;20221;-77
2022/01/07 03:52:02;;;;;;;14.20;8.03;;;3.40;99.90;;;;;;5039620;28;20297;-77
2022/01/07 03:54:31;;;;;;;14.40;8.90;;;3.40;99.90;;;;;;5038156;28;20271;-79
2022/01/07 03:56:58;;;;;;;14.40;7.93;;;3.40;99.90;;;;;;5039253;28;20544;-78
2022/01/07 03:59:26;;;;;;;17.63;8.47;;;3.30;99.90;;;;;;5035519;28;20263;-77
2022/01/07 04:01:56;;;;;;;15.90;7.90;;;3.40;99.90;;;;;;5036715;28;20344;-78
2022/01/07 04:04:24;;;;;;;17.37;8.07;;;3.30;99.90;;;;;;5035833;28;20220;-79
2022/01/07 04:06:50;;;;;;;15.27;7.83;;;3.40;99.90;;;;;;5038035;28;20213;-77
2022/01/07 04:09:17;;;;;;;16.20;7.60;;;3.30;99.90;;;;;;5024679;28;20276;-79
2022/01/07 04:11:44;;;;;;;12.60;7.53;;;3.40;99.90;;;;;;5039686;28;20259;-79
2022/01/07 04:14:11;;;;;;;13.53;7.83;;;3.40;99.90;;;;;;5034503;28;20322;-79
2022/01/07 04:16:40;;;;;;;13.70;7.07;;;3.30;99.90;;;;;;5013308;28;20237;-78
2022/01/07 04:19:07;;;;;;;16.03;8.37;;;3.30;99.90;;;;;;5039542;28;20390;-79
2022/01/07 04:21:34;;;;;;;11.10;7.70;;;3.30;99.90;;;;;;5036563;28;20623;-78
2022/01/07 04:24:01;;;;;;;14.97;7.87;;;3.40;99.90;;;;;;5039026;28;20369;-78
2022/01/07 04:26:28;;;;;;;16.83;7.33;;;3.40;99.90;;;;;;5028570;28;20225;-79
2022/01/07 04:28:55;;;;;;;11.60;6.97;;;3.40;99.90;;;;;;5022786;28;21058;-79
2022/01/07 04:31:21;;;;;;;12.53;7.13;;;3.40;99.90;;;;;;5038910;28;20208;-79
2022/01/07 04:33:48;;;;;;;11.80;7.00;;;3.40;99.90;;;;;;5031089;28;20711;-77
2022/01/07 04:36:15;;;;;;;13.60;7.17;;;3.40;99.90;;;;;;5032405;28;20224;-78
2022/01/07 04:38:44;;;;;;;11.83;6.43;;;3.40;99.90;;;;;;5004469;28;20247;-77
2022/01/07 04:41:10;;;;;;;10.70;6.73;;;3.30;99.90;;;;;;5032899;28;20302;-78
2022/01/07 04:43:37;;;;;;;11.27;6.20;;;3.40;99.90;;;;;;5023952;28;20236;-77
2022/01/07 04:46:05;;;;;;;9.37;6.50;;;3.40;99.90;;;;;;5029508;28;20793;-78
2022/01/07 04:48:31;;;;;;;8.30;6.23;;;3.40;99.90;;;;;;5033945;28;20295;-77
2022/01/07 04:50:58;;;;;;;8.83;6.20;;;3.40;99.90;;;;;;5039007;28;20219;-78
2022/01/07 04:53:26;;;;;;;7.83;5.43;;;3.40;99.90;;;;;;5023301;28;20250;-79
2022/01/07 04:55:53;;;;;;;8.53;5.70;;;3.40;99.90;;;;;;5025758;28;20233;-78
2022/01/07 04:58:20;;;;;;;9.43;5.80;;;3.30;99.90;;;;;;5039709;28;20212;-78
2022/01/07 05:00:47;;;;;;;9.37;6.50;;;3.30;99.90;;;;;;5030655;28;20244;-78
2022/01/07 05:03:14;;;;;;;6.73;5.17;;;3.30;99.90;;;;;;5033759;28;20205;-79
2022/01/07 05:05:45;;;;;;;7.57;5.37;;;3.30;99.90;;;;;;5051763;28;20225;-77
2022/01/07 05:08:11;;;;;;;9.63;5.23;;;3.30;99.90;;;;;;5027655;28;20271;-78
2022/01/07 05:10:39;;;;;;;7.80;5.50;;;3.30;99.90;;;;;;5029017;28;20665;-78
2022/01/07 05:13:06;;;;;;;9.23;5.33;;;3.30;99.90;;;;;;5038184;28;20200;-78
2022/01/07 05:15:33;;;;;;;8.77;5.67;;;3.30;99.90;;;;;;5041148;28;20233;-79
2022/01/07 05:18:00;;;;;;;8.00;5.47;;;3.20;99.90;;;;;;5033195;28;20239;-78
2022/01/07 05:20:26;;;;;;;8.87;6.10;;;3.20;99.90;;;;;;5021978;28;20251;-79
2022/01/07 05:22:53;;;;;;;10.03;6.07;;;3.20;99.90;;;;;;5034205;28;20230;-78
2022/01/07 05:25:21;;;;;;;10.20;6.30;;;3.30;99.90;;;;;;5033530;28;20303;-79
2022/01/07 05:27:47;;;;;;;8.67;6.00;;;3.20;99.90;;;;;;5026067;28;20226;-77
2022/01/07 05:30:18;;;;;;;8.03;5.97;;;3.30;99.90;;;;;;5027882;28;20212;-78
2022/01/07 05:32:45;;;;;;;9.20;6.53;;;3.30;99.90;;;;;;5031991;28;20209;-78
2022/01/07 05:35:14;;;;;;;9.60;6.60;;;3.30;99.90;;;;;;5029590;28;20242;-78
2022/01/07 05:37:40;;;;;;;8.23;5.77;;;3.30;99.90;;;;;;5027195;28;20209;-78
2022/01/07 05:40:08;;;;;;;11.33;6.43;;;3.30;99.90;;;;;;5028541;28;20266;-77
2022/01/07 05:42:35;;;;;;;11.80;7.03;;;3.30;99.90;;;;;;5036946;28;20396;-78
2022/01/07 05:45:02;;;;;;;10.30;6.47;;;3.30;99.90;;;;;;5023011;28;20232;-78
2022/01/07 05:47:32;;;;;;;11.27;6.93;;;3.30;99.90;;;;;;5032285;28;20204;-77
2022/01/07 05:49:59;;;;;;;11.03;6.50;;;3.30;99.90;;;;;;5040375;28;20228;-78
2022/01/07 05:52:25;;;;;;;12.47;7.27;;;3.30;99.90;;;;;;5032545;28;20206;-79
2022/01/07 05:54:52;;;;;;;12.77;7.47;;;3.30;99.90;;;;;;5022523;28;20231;-79
2022/01/07 05:57:19;;;;;;;10.90;7.23;;;3.40;99.90;;;;;;5035154;28;20203;-78
2022/01/07 05:59:47;;;;;;;11.17;7.27;;;3.40;99.90;;;;;;5032135;28;20395;-78
2022/01/07 06:02:13;;;;;;;14.43;8.23;;;3.40;99.90;;;;;;5049507;28;20389;-79
2022/01/07 06:04:46;;;;;;;13.00;8.03;;;3.50;99.90;;;;;;5027905;28;20231;-78
2022/01/07 06:07:13;;;;;;;14.50;8.20;;;3.40;99.90;;;;;;5022488;28;20285;-78
2022/01/07 06:09:39;;;;;;;16.10;9.13;;;3.40;99.90;;;;;;5024496;28;20755;-78
2022/01/07 06:12:08;;;;;;;13.50;9.37;;;3.50;99.90;;;;;;5032244;28;20250;-77
2022/01/07 06:14:35;;;;;;;18.17;10.03;;;3.50;99.90;;;;;;5010114;28;20217;-79
2022/01/07 06:17:02;;;;;;;17.67;10.30;;;3.50;99.90;;;;;;5036043;28;20205;-80
2022/01/07 06:19:30;;;;;;;15.90;10.30;;;3.60;99.90;;;;;;5018528;28;20701;-77
2022/01/07 06:21:57;;;;;;;15.13;10.33;;;3.60;99.90;;;;;;5031205;28;20699;-78
2022/01/07 06:24:24;;;;;;;14.43;9.67;;;3.60;99.90;;;;;;5027904;28;20223;-78
2022/01/07 06:26:50;;;;;;;17.43;11.20;;;3.70;99.90;;;;;;5024853;28;20236;-77
2022/01/07 06:29:17;;;;;;;15.90;10.80;;;3.60;99.90;;;;;;5028573;28;20748;-77
2022/01/07 06:31:44;;;;;;;21.53;11.60;;;3.70;99.90;;;;;;5029004;28;20201;-78
2022/01/07 06:34:11;;;;;;;19.37;11.53;;;3.90;99.90;;;;;;5036221;28;20316;-79
2022/01/07 06:36:37;;;;;;;21.67;11.80;;;3.80;99.90;;;;;;5025523;28;20756;-78
2022/01/07 06:39:05;;;;;;;19.37;11.33;;;3.80;99.90;;;;;;5022972;28;20249;-78
2022/01/07 06:41:31;;;;;;;22.93;13.17;;;3.90;99.90;;;;;;5028925;28;20296;-78
2022/01/07 06:43:58;;;;;;;25.47;13.20;;;3.90;99.90;;;;;;5034804;28;20289;-78
2022/01/07 06:46:27;;;;;;;27.43;13.43;;;3.90;99.90;;;;;;5002047;28;20582;-77
2022/01/07 06:48:54;;;;;;;20.53;13.57;;;4.00;99.90;;;;;;5031300;28;20297;-78
2022/01/07 06:51:21;;;;;;;20.87;13.47;;;4.00;99.90;;;;;;5030088;28;20720;-78
2022/01/07 06:53:47;;;;;;;22.43;13.60;;;4.10;99.90;;;;;;5019126;28;20217;-78
2022/01/07 06:56:14;;;;;;;27.13;14.80;;;4.10;99.90;;;;;;5019390;28;20293;-78
2022/01/07 06:58:42;;;;;;;26.47;13.77;;;4.20;99.90;;;;;;5018055;28;20202;-77
2022/01/07 07:01:08;;;;;;;26.87;14.43;;;4.20;99.90;;;;;;5016295;28;20240;-77
2022/01/07 07:03:35;;;;;;;26.17;14.07;;;4.20;99.90;;;;;;5018140;28;20205;-77
2022/01/07 07:06:04;;;;;;;25.83;15.13;;;4.30;99.90;;;;;;4992541;28;20743;-77
2022/01/07 07:08:31;;;;;;;27.10;15.40;;;4.30;99.90;;;;;;5010944;28;20309;-77
2022/01/07 07:10:58;;;;;;;27.67;15.87;;;4.30;99.90;;;;;;5012519;28;20207;-76
2022/01/07 07:13:25;;;;;;;30.00;15.60;;;4.40;99.90;;;;;;5026243;28;20297;-77
2022/01/07 07:15:52;;;;;;;28.67;16.33;;;4.40;99.90;;;;;;5012097;28;20241;-77
2022/01/07 07:18:18;;;;;;;29.57;17.10;;;4.40;99.90;;;;;;5011964;28;20680;-77
2022/01/07 07:20:45;;;;;;;31.57;16.20;;;4.40;99.90;;;;;;5021174;28;20230;-77
2022/01/07 07:23:12;;;;;;;35.70;17.90;;;4.40;99.90;;;;;;4982420;28;20281;-77
2022/01/07 07:25:40;;;;;;;31.23;17.40;;;4.50;99.90;;;;;;5015129;28;20293;-78
2022/01/07 07:28:06;;;;;;;34.73;18.00;;;4.50;99.90;;;;;;5016914;28;20723;-78
2022/01/07 07:30:37;;;;;;;33.90;17.23;;;4.50;99.90;;;;;;4999536;28;20552;-77
2022/01/07 07:33:28;;;;;;;29.93;17.47;;;4.50;99.90;;;;;;4991778;28;20252;-79
2022/01/07 07:38:42;;;;;;;35.87;18.27;;;4.50;99.90;;;;;;5011596;28;20207;-78
2022/01/07 07:41:13;;;;;;;33.30;18.50;;;4.50;99.90;;;;;;5007823;28;20218;-78
2022/01/07 07:43:40;;;;;;;38.33;18.53;;;4.50;99.90;;;;;;5018598;28;20202;-77
2022/01/07 07:46:07;;;;;;;33.87;19.63;;;4.60;99.90;;;;;;5034323;28;20264;-78
2022/01/07 07:48:34;;;;;;;40.00;19.87;;;4.50;99.90;;;;;;5015443;28;20206;-77
2022/01/07 07:51:01;;;;;;;34.50;19.60;;;4.60;99.90;;;;;;5021563;28;20251;-78
2022/01/07 07:53:32;;;;;;;38.77;20.73;;;4.60;99.90;;;;;;4996947;28;20229;-79
2022/01/07 07:55:58;;;;;;;36.17;19.53;;;4.70;99.90;;;;;;5011990;28;20257;-78
2022/01/07 07:58:27;;;;;;;38.60;20.17;;;4.70;99.90;;;;;;5031849;28;20208;-78
2022/01/07 08:00:54;;;;;;;35.40;19.70;;;4.80;99.90;;;;;;5031898;28;20639;-79
2022/01/07 08:03:23;;;;;;;37.07;19.93;;;4.80;99.90;;;;;;5034791;28;20331;-78
2022/01/07 08:05:50;;;;;;;36.53;19.87;;;4.90;99.90;;;;;;5017385;28;20233;-78
2022/01/07 08:08:17;;;;;;;39.57;20.90;;;4.90;99.90;;;;;;5010800;28;20288;-78
2022/01/07 08:10:53;;;;;;;34.97;19.40;;;4.90;99.90;;;;;;5033981;28;20317;-78
2022/01/07 08:16:03;;;;;;;36.33;20.63;;;5.00;99.90;;;;;;5034826;28;20658;-77
2022/01/07 08:18:38;;;;;;;39.80;20.93;;;4.90;99.90;;;;;;5012008;28;20260;-78
2022/01/07 08:21:11;;;;;;;38.07;21.13;;;5.00;99.90;;;;;;5034795;28;20216;-78
2022/01/07 08:23:42;;;;;;;41.57;20.90;;;5.00;99.90;;;;;;5019604;28;20570;-79
2022/01/07 08:26:11;;;;;;;44.53;20.50;;;5.00;99.90;;;;;;5034379;28;20232;-78
2022/01/07 08:28:41;;;;;;;37.70;20.40;;;5.00;99.90;;;;;;5039391;28;20210;-78
2022/01/07 08:36:28;;;;;;;35.37;19.30;;;5.10;99.90;;;;;;5037835;28;20678;-78
2022/01/07 08:38:57;;;;;;;40.63;19.13;;;5.10;99.90;;;;;;5031252;28;20260;-78
2022/01/07 08:41:27;;;;;;;35.33;18.93;;;5.30;99.90;;;;;;5034506;28;20598;-79
2022/01/07 08:43:57;;;;;;;31.10;18.90;;;5.10;99.90;;;;;;5040863;28;20206;-79
2022/01/07 08:46:24;;;;;;;35.20;17.93;;;5.30;99.90;;;;;;5045224;28;20233;-78
2022/01/07 08:48:52;;;;;;;33.83;17.63;;;5.40;99.90;;;;;;4995806;28;20214;-79
2022/01/07 08:51:19;;;;;;;35.27;17.57;;;5.20;99.90;;;;;;5024866;28;20229;-78
2022/01/07 08:53:50;;;;;;;32.00;17.13;;;5.30;99.90;;;;;;5036335;28;20247;-80
2022/01/07 08:56:17;;;;;;;32.57;16.63;;;5.30;99.90;;;;;;5008492;28;20584;-79
2022/01/07 08:58:44;;;;;;;33.87;17.23;;;5.30;99.90;;;;;;5017223;28;20256;-78
2022/01/07 09:01:11;;;;;;;29.47;17.90;;;5.30;99.90;;;;;;5032843;28;20233;-80
2022/01/07 09:03:38;;;;;;;31.50;16.77;;;5.30;99.90;;;;;;5041779;28;20300;-79
2022/01/07 09:06:05;;;;;;;30.07;17.07;;;5.40;99.90;;;;;;4999219;28;20274;-78
2022/01/07 09:08:32;;;;;;;33.77;18.63;;;5.40;99.90;;;;;;5034166;28;20653;-80
2022/01/07 09:11:00;;;;;;;30.27;17.23;;;5.40;99.90;;;;;;5038825;28;20548;-78
2022/01/07 09:13:27;;;;;;;33.87;16.50;;;5.40;99.90;;;;;;5032694;28;20234;-79
2022/01/07 09:15:54;;;;;;;28.57;16.93;;;5.40;99.90;;;;;;5027305;28;20242;-78
2022/01/07 09:18:21;;;;;;;31.60;16.97;;;5.50;99.90;;;;;;5042959;28;20705;-79
2022/01/07 09:20:49;;;;;;;31.97;17.07;;;5.50;99.90;;;;;;5041801;28;20663;-79
2022/01/07 09:23:16;;;;;;;32.53;17.17;;;5.50;99.90;;;;;;5042687;28;20205;-78
2022/01/07 09:25:43;;;;;;;34.37;18.13;;;5.60;99.90;;;;;;5038326;28;20212;-79
2022/01/07 09:28:10;;;;;;;32.13;17.67;;;5.50;99.90;;;;;;5046434;28;20251;-78
2022/01/07 09:30:37;;;;;;;35.73;18.00;;;5.60;99.90;;;;;;5037790;28;20296;-77
2022/01/07 09:33:04;;;;;;;32.93;17.13;;;5.60;99.90;;;;;;5036691;28;20643;-80
2022/01/07 09:35:31;;;;;;;32.87;17.60;;;5.60;99.90;;;;;;5037345;28;20260;-78
2022/01/07 09:37:58;;;;;;;35.10;18.27;;;5.60;99.90;;;;;;5026200;28;20680;-77
2022/01/07 09:40:25;;;;;;;35.67;17.80;;;5.50;99.90;;;;;;5026376;28;20265;-77
2022/01/07 09:43:07;;;;;;;28.90;17.13;;;5.60;99.90;;;;;;5003529;28;20211;-78
2022/01/07 09:45:35;;;;;;;30.93;17.90;;;5.70;99.90;;;;;;5030669;28;20656;-77
2022/01/07 09:48:08;;;;;;;30.77;17.13;;;5.70;99.90;;;;;;5028404;28;20220;-77
2022/01/07 09:50:36;;;;;;;29.63;17.23;;;5.80;99.90;;;;;;5023496;28;20608;-78
2022/01/07 09:53:12;;;;;;;31.33;15.77;;;5.80;99.90;;;;;;5041300;28;20233;-78
2022/01/07 09:55:43;;;;;;;30.57;16.33;;;5.80;99.90;;;;;;5032414;28;20276;-77
2022/01/07 09:58:13;;;;;;;25.37;16.57;;;5.90;99.90;;;;;;5022389;28;20198;-76
2022/01/07 10:00:45;;;;;;;32.07;14.67;;;6.00;99.90;;;;;;5024775;28;20221;-78
2022/01/07 10:03:15;;;;;;;28.97;14.30;;;6.00;99.90;;;;;;5028526;28;20208;-78
2022/01/07 10:05:49;;;;;;;25.53;13.97;;;6.10;99.90;;;;;;5024537;28;20313;-77
2022/01/07 10:08:25;;;;;;;21.83;14.20;;;6.10;99.90;;;;;;5026328;28;20581;-77
2022/01/07 10:11:18;;;;;;;28.43;13.70;;;6.20;99.90;;;;;;5038902;28;20608;-77
2022/01/07 10:13:47;;;;;;;24.63;13.30;;;6.20;99.90;;;;;;5027381;28;20243;-78
2022/01/07 10:16:22;;;;;;;19.83;13.00;;;6.30;99.90;;;;;;5022005;28;20947;-77
2022/01/07 10:18:51;;;;;;;23.43;13.20;;;6.20;99.90;;;;;;5033236;28;20206;-77
2022/01/07 10:21:19;;;;;;;22.33;12.97;;;6.30;99.90;;;;;;5034626;28;20227;-78
2022/01/07 10:23:47;;;;;;;24.70;13.13;;;6.30;99.90;;;;;;5026455;28;20692;-78
2022/01/07 10:26:21;;;;;;;23.27;12.47;;;6.30;99.90;;;;;;5032312;28;20661;-77
2022/01/07 10:28:49;;;;;;;21.77;11.93;;;6.40;99.90;;;;;;4999972;28;20394;-77
2022/01/07 10:31:24;;;;;;;21.77;12.00;;;6.50;99.90;;;;;;5029634;28;20570;-77
2022/01/07 10:33:53;;;;;;;20.20;13.17;;;6.50;99.90;;;;;;5033112;28;20219;-78
2022/01/07 10:36:25;;;;;;;23.93;11.77;;;6.70;99.90;;;;;;5035964;28;20323;-77
2022/01/07 10:39:00;;;;;;;22.10;12.10;;;6.70;99.90;;;;;;5029275;28;20608;-78
2022/01/07 10:41:26;;;;;;;19.83;11.67;;;6.70;99.90;;;;;;5027033;28;20208;-77
2022/01/07 10:44:02;;;;;;;19.80;12.07;;;6.60;99.90;;;;;;5027183;28;20220;-77
2022/01/07 10:46:31;;;;;;;22.13;11.30;;;6.60;99.90;;;;;;5030991;28;20258;-76
2022/01/07 10:49:00;;;;;;;17.63;11.37;;;6.70;99.90;;;;;;5026285;28;20247;-77
2022/01/07 10:51:41;;;;;;;20.37;11.30;;;6.60;99.90;;;;;;5019273;28;20590;-78
2022/01/07 10:54:10;;;;;;;23.67;12.47;;;6.60;99.90;;;;;;5035974;28;20664;-78
2022/01/07 10:56:44;;;;;;;24.27;12.57;;;6.60;99.90;;;;;;5010356;28;20246;-77
2022/01/07 10:59:12;;;;;;;22.20;12.13;;;6.70;99.90;;;;;;5022134;28;20210;-78
2022/01/07 11:01:56;;;;;;;21.03;12.60;;;6.60;99.90;;;;;;5031346;28;20206;-78
2022/01/07 11:04:26;;;;;;;23.53;12.33;;;6.70;99.90;;;;;;5028979;28;20628;-78
2022/01/07 11:07:00;;;;;;;21.37;11.67;;;6.80;99.90;;;;;;5023407;28;20248;-77
2022/01/07 11:09:29;;;;;;;19.60;11.17;;;6.90;99.90;;;;;;5024121;28;20253;-78
2022/01/07 11:12:01;;;;;;;18.77;11.03;;;6.90;99.90;;;;;;5005115;28;20240;-79
2022/01/07 11:14:35;;;;;;;25.20;11.27;;;6.90;99.90;;;;;;5030553;28;20213;-78
2022/01/07 11:17:10;;;;;;;21.97;10.87;;;6.80;99.90;;;;;;5026808;28;20232;-77
2022/01/07 11:19:42;;;;;;;20.90;11.63;;;6.80;99.90;;;;;;5032116;28;20220;-78
2022/01/07 11:22:12;;;;;;;19.23;10.60;;;6.80;99.90;;;;;;5039621;28;20248;-78
2022/01/07 11:24:50;;;;;;;23.27;11.47;;;6.90;99.90;;;;;;5032259;28;20205;-76
2022/01/07 11:27:21;;;;;;;18.20;10.53;;;6.80;99.90;;;;;;5031925;28;20649;-77
2022/01/07 11:29:47;;;;;;;15.63;10.37;;;6.80;99.90;;;;;;5030785;28;20212;-77
2022/01/07 11:32:26;;;;;;;23.27;11.13;;;6.80;99.90;;;;;;5032444;28;20679;-78
2022/01/07 11:35:14;;;;;;;24.00;10.40;;;6.80;99.90;;;;;;5034028;28;20276;-78
2022/01/07 11:37:42;;;;;;;22.80;11.03;;;6.80;99.90;;;;;;5032181;28;20214;-77
2022/01/07 11:40:10;;;;;;;15.87;9.73;;;6.90;99.90;;;;;;5002273;28;20577;-78
2022/01/07 11:42:45;;;;;;;16.80;10.33;;;7.00;99.90;;;;;;5008708;28;20206;-79
2022/01/07 11:45:33;;;;;;;19.13;9.83;;;7.10;99.90;;;;;;5035591;28;20200;-78
2022/01/07 11:48:10;;;;;;;14.67;8.87;;;7.10;99.90;;;;;;5018446;28;20222;-81
2022/01/07 11:50:56;;;;;;;16.40;8.67;;;7.00;99.90;;;;;;5031244;28;20646;-76
2022/01/07 11:53:25;;;;;;;16.63;8.87;;;6.90;99.90;;;;;;5022567;28;20630;-77
2022/01/07 11:55:58;;;;;;;12.53;8.50;;;6.80;99.90;;;;;;5051705;28;20271;-80
2022/01/07 11:58:41;;;;;;;18.50;9.97;;;6.70;99.90;;;;;;5024657;28;20661;-78
2022/01/07 12:01:28;;;;;;;16.63;8.90;;;6.80;99.90;;;;;;5030399;28;20215;-78
2022/01/07 12:04:00;;;;;;;16.43;9.47;;;6.70;99.90;;;;;;5032853;28;20514;-79
2022/01/07 12:06:38;;;;;;;13.63;8.00;;;6.80;99.90;;;;;;5030309;28;20219;-76
2022/01/07 12:09:06;;;;;;;10.23;6.10;;;6.80;99.90;;;;;;5029878;28;20276;-78
2022/01/07 12:11:37;;;;;;;8.17;4.20;;;6.60;99.90;;;;;;5021910;28;20304;-78
2022/01/07 12:14:13;;;;;;;9.80;4.00;;;6.30;99.90;;;;;;5019859;28;20231;-79
2022/01/07 12:16:42;;;;;;;7.00;4.27;;;5.90;99.90;;;;;;5017825;28;20233;-78
2022/01/07 12:19:18;;;;;;;11.63;6.47;;;5.90;99.90;;;;;;5032391;28;20211;-79
2022/01/07 12:21:47;;;;;;;13.60;6.43;;;5.70;99.90;;;;;;5032399;28;20295;-80
2022/01/07 12:24:21;;;;;;;13.47;7.00;;;5.60;99.90;;;;;;5028601;28;20733;-78
2022/01/07 12:27:08;;;;;;;12.70;6.53;;;5.60;99.90;;;;;;5023877;28;20553;-78
2022/01/07 12:29:38;;;;;;;18.70;7.40;;;5.60;99.90;;;;;;5033231;28;20744;-78
2022/01/07 12:32:07;;;;;;;18.87;8.03;;;5.60;99.90;;;;;;5030183;28;20209;-78
2022/01/07 12:34:37;;;;;;;14.53;8.53;;;5.60;99.90;;;;;;5026323;28;20223;-78
2022/01/07 12:37:16;;;;;;;22.27;10.57;;;5.60;99.90;;;;;;5031203;28;20225;-80
2022/01/07 12:39:52;;;;;;;17.27;8.47;;;5.70;99.90;;;;;;5026081;28;20198;-80
2022/01/07 12:42:19;;;;;;;23.00;9.20;;;5.80;99.90;;;;;;5044119;28;20732;-79
2022/01/07 12:44:52;;;;;;;20.43;8.13;;;5.80;99.90;;;;;;5026753;28;20201;-79
2022/01/07 12:47:21;;;;;;;15.57;7.97;;;5.80;99.90;;;;;;5019529;28;20246;-81
2022/01/07 12:49:57;;;;;;;18.23;8.03;;;5.90;99.90;;;;;;5032378;28;20615;-81
2022/01/07 12:52:37;;;;;;;15.83;8.27;;;5.90;99.90;;;;;;5032495;28;20206;-78
2022/01/07 12:55:06;;;;;;;16.07;7.23;;;6.00;99.90;;;;;;5036784;28;20215;-79
2022/01/07 12:57:42;;;;;;;10.10;6.53;;;6.00;99.90;;;;;;5021875;28;20329;-80
2022/01/07 13:00:18;;;;;;;13.20;6.20;;;6.00;99.90;;;;;;5049057;28;20664;-78
2022/01/07 13:02:57;;;;;;;16.00;5.60;;;6.00;99.90;;;;;;5044914;28;20207;-77